createdAt,value
2019-04-07T00:02:29.169Z,30.15
2019-04-07T00:05:11.901Z,31.27
2019-04-07T00:10:35.585Z,32.13
2019-04-07T00:13:15.270Z,30.47
2019-04-07T00:15:55.698Z,31.23
2019-04-07T00:18:35.741Z,31.10
2019-04-07T00:21:15.627Z,31.33
2019-04-07T00:23:55.570Z,31.60
2019-04-07T00:26:36.017Z,30.23
2019-04-07T00:29:15.600Z,30.45
2019-04-07T00:31:55.761Z,30.40
2019-04-07T00:34:35.884Z,31.02
2019-04-07T00:37:15.719Z,29.70
2019-04-07T00:39:55.438Z,30.85
2019-04-07T00:42:35.411Z,31.45
2019-04-07T00:45:16.342Z,31.90
2019-04-07T00:47:56.805Z,31.35
2019-04-07T00:50:36.482Z,32.27
2019-04-07T00:53:16.576Z,32.85
2019-04-07T00:55:57.686Z,32.60
2019-04-07T00:58:37.921Z,31.50
2019-04-07T01:01:18.576Z,32.63
2019-04-07T01:03:58.422Z,34.78
2019-04-07T01:06:38.571Z,33.30
2019-04-07T01:09:18.765Z,32.20
2019-04-07T01:11:59.512Z,32.38
2019-04-07T01:14:39.083Z,32.37
2019-04-07T01:17:19.180Z,31.65
2019-04-07T01:19:59.711Z,31.93
2019-04-07T01:22:39.765Z,31.52
2019-04-07T01:25:19.298Z,31.57
2019-04-07T01:27:59.327Z,31.93
2019-04-07T01:30:39.187Z,32.03
2019-04-07T01:33:19.564Z,32.95
2019-04-07T01:35:59.836Z,34.47
2019-04-07T01:38:39.464Z,32.95
2019-04-07T01:44:36.031Z,33.95
2019-04-07T01:47:21.057Z,32.60
2019-04-07T01:50:22.111Z,33.13
2019-04-07T01:53:21.327Z,33.10
2019-04-07T01:56:09.984Z,32.48
2019-04-07T01:59:11.247Z,34.18
2019-04-07T02:02:07.130Z,34.83
2019-04-07T02:04:58.190Z,30.23
2019-04-07T02:07:45.902Z,27.53
2019-04-07T02:10:45.069Z,26.63
2019-04-07T02:13:44.161Z,27.00
2019-04-07T02:16:46.469Z,25.80
2019-04-07T02:19:39.528Z,27.57
2019-04-07T02:22:39.802Z,27.30
2019-04-07T02:25:41.596Z,34.40
2019-04-07T02:28:40.825Z,33.23
2019-04-07T02:31:42.266Z,33.18
2019-04-07T02:34:28.011Z,30.73
2019-04-07T02:37:27.893Z,27.80
2019-04-07T02:40:34.197Z,28.70
2019-04-07T02:43:24.544Z,28.37
2019-04-07T02:46:26.917Z,28.53
2019-04-07T02:49:20.407Z,26.30
2019-04-07T02:52:20.168Z,28.47
2019-04-07T02:55:20.514Z,26.20
2019-04-07T02:58:07.708Z,29.77
2019-04-07T03:01:09.598Z,29.43
2019-04-07T03:04:05.432Z,27.40
2019-04-07T03:07:04.972Z,29.43
2019-04-07T03:09:50.517Z,28.73
2019-04-07T03:12:50.000Z,29.87
2019-04-07T03:15:34.807Z,29.33
2019-04-07T03:21:38.319Z,28.13
2019-04-07T03:24:37.765Z,27.63
2019-04-07T03:27:38.480Z,28.63
2019-04-07T03:30:40.013Z,27.43
2019-04-07T03:33:37.959Z,33.98
2019-04-07T03:36:25.737Z,28.10
2019-04-07T03:39:15.429Z,26.87
2019-04-07T03:42:06.231Z,28.27
2019-04-07T03:47:56.029Z,26.33
2019-04-07T03:50:43.019Z,28.27
2019-04-07T03:53:41.052Z,33.05
2019-04-07T03:56:42.028Z,32.48
2019-04-07T04:02:44.594Z,33.50
2019-04-07T04:05:36.294Z,29.33
2019-04-07T04:08:41.750Z,33.13
2019-04-07T04:11:42.626Z,32.53
2019-04-07T04:14:34.711Z,31.27
2019-04-07T04:17:16.452Z,26.73
2019-04-07T04:19:55.945Z,30.43
2019-04-07T04:22:36.009Z,29.45
2019-04-07T04:25:16.955Z,29.27
2019-04-07T04:27:57.037Z,30.52
2019-04-07T04:30:34.824Z,30.55
2019-04-07T04:33:21.395Z,30.02
2019-04-07T04:36:02.570Z,30.77
2019-04-07T04:38:42.513Z,30.85
2019-04-07T04:41:21.814Z,31.55
2019-04-07T04:44:02.232Z,32.13
2019-04-07T04:46:42.677Z,30.97
2019-04-07T04:49:23.273Z,31.25
2019-04-07T04:52:03.520Z,31.15
2019-04-07T04:54:43.401Z,29.67
2019-04-07T04:57:23.670Z,27.43
2019-04-07T05:00:03.950Z,25.93
2019-04-07T05:02:44.517Z,28.57
2019-04-07T05:05:24.452Z,26.33
2019-04-07T05:08:05.495Z,25.00
2019-04-07T05:10:45.698Z,25.27
2019-04-07T05:13:26.012Z,25.37
2019-04-07T05:16:05.699Z,26.80
2019-04-07T05:18:46.508Z,27.13
2019-04-07T05:21:25.052Z,24.77
2019-04-07T05:24:04.739Z,25.50
2019-04-07T05:26:44.611Z,26.95
2019-04-07T05:29:24.758Z,23.80
2019-04-07T05:32:04.769Z,22.97
2019-04-07T05:34:45.552Z,23.23
2019-04-07T05:37:25.335Z,22.73
2019-04-07T05:40:05.779Z,22.97
2019-04-07T05:42:46.584Z,23.97
2019-04-07T05:45:26.058Z,22.83
2019-04-07T05:48:06.449Z,23.13
2019-04-07T05:50:46.140Z,23.27
2019-04-07T05:53:26.604Z,22.67
2019-04-07T05:56:06.174Z,23.23
2019-04-07T05:58:46.219Z,22.53
2019-04-07T06:01:26.759Z,23.27
2019-04-07T06:04:06.682Z,22.60
2019-04-07T06:06:51.221Z,21.93
2019-04-07T06:09:29.539Z,25.48
2019-04-07T06:12:09.926Z,24.55
2019-04-07T06:14:50.882Z,22.90
2019-04-07T06:17:31.418Z,23.00
2019-04-07T06:20:14.113Z,22.00
2019-04-07T06:22:53.604Z,21.33
2019-04-07T06:25:38.136Z,21.27
2019-04-07T06:28:18.102Z,22.00
2019-04-07T06:30:59.431Z,23.25
2019-04-07T06:33:39.230Z,23.12
2019-04-07T06:36:20.268Z,21.20
2019-04-07T06:39:00.303Z,20.43
2019-04-07T06:41:40.238Z,20.63
2019-04-07T06:44:22.436Z,20.90
2019-04-07T06:47:30.793Z,19.67
2019-04-07T06:50:31.175Z,19.23
2019-04-07T06:53:19.647Z,18.83
2019-04-07T06:56:20.752Z,19.70
2019-04-07T06:59:19.956Z,18.53
2019-04-07T07:02:13.231Z,21.77
2019-04-07T07:05:14.408Z,19.00
2019-04-07T07:08:13.735Z,20.43
2019-04-07T07:11:03.060Z,21.52
2019-04-07T07:14:04.199Z,20.97
2019-04-07T07:16:51.503Z,21.10
2019-04-07T07:19:56.648Z,22.30
2019-04-07T07:22:45.968Z,22.13
2019-04-07T07:25:24.180Z,21.15
2019-04-07T07:28:04.476Z,20.77
2019-04-07T07:30:45.306Z,20.35
2019-04-07T07:33:25.355Z,20.17
2019-04-07T07:36:05.460Z,19.32
2019-04-07T07:38:57.490Z,19.90
2019-04-07T07:41:28.089Z,19.60
2019-04-07T07:44:09.500Z,20.37
2019-04-07T07:46:50.585Z,19.60
2019-04-07T07:49:34.749Z,20.23
2019-04-07T07:52:17.117Z,19.30
2019-04-07T07:54:55.258Z,20.27
2019-04-07T07:57:35.555Z,19.95
2019-04-07T08:00:15.641Z,19.62
2019-04-07T08:02:55.783Z,19.62
2019-04-07T08:05:35.219Z,20.17
2019-04-07T08:08:16.377Z,19.53
2019-04-07T08:11:00.385Z,19.37
2019-04-07T08:13:43.416Z,18.92
2019-04-07T08:16:20.685Z,18.23
2019-04-07T08:19:01.493Z,18.40
2019-04-07T08:21:43.363Z,17.07
2019-04-07T08:24:23.012Z,17.07
2019-04-07T08:27:05.217Z,16.90
2019-04-07T08:29:48.716Z,17.57
2019-04-07T08:32:31.833Z,16.67
2019-04-07T08:35:11.104Z,17.13
2019-04-07T08:37:51.095Z,18.40
2019-04-07T08:40:31.495Z,16.33
2019-04-07T08:43:11.488Z,17.60
2019-04-07T08:45:51.503Z,16.17
2019-04-07T08:48:32.207Z,16.20
2019-04-07T08:51:16.224Z,18.37
2019-04-07T08:53:55.971Z,17.73
2019-04-07T08:56:35.569Z,16.23
2019-04-07T08:59:17.030Z,16.10
2019-04-07T09:01:56.975Z,16.53
2019-04-07T09:04:37.007Z,16.40
2019-04-07T09:07:17.538Z,16.90
2019-04-07T09:09:57.813Z,16.90
2019-04-07T09:12:37.233Z,16.33
2019-04-07T09:18:29.423Z,16.93
2019-04-07T09:24:31.409Z,18.07
2019-04-07T09:30:42.260Z,16.73
2019-04-07T09:33:40.188Z,16.97
2019-04-07T09:36:32.611Z,17.00
2019-04-07T09:39:22.471Z,17.00
2019-04-07T09:42:29.164Z,17.80
2019-04-07T09:48:33.477Z,17.27
2019-04-07T09:51:28.151Z,16.17
2019-04-07T09:54:21.413Z,16.47
2019-04-07T09:57:19.044Z,16.60
2019-04-07T10:00:25.159Z,16.70
2019-04-07T10:03:25.155Z,15.87
2019-04-07T10:06:12.652Z,15.57
2019-04-07T10:12:15.931Z,15.87
2019-04-07T10:15:22.334Z,15.63
2019-04-07T10:18:19.184Z,16.03
2019-04-07T10:21:09.998Z,15.90
2019-04-07T10:24:01.724Z,18.00
2019-04-07T10:26:56.293Z,16.23
2019-04-07T10:29:52.460Z,16.67
2019-04-07T10:32:56.250Z,15.10
2019-04-07T10:35:58.704Z,15.73
2019-04-07T10:38:55.309Z,15.70
2019-04-07T10:41:55.777Z,17.10
2019-04-07T10:44:55.642Z,16.90
2019-04-07T10:47:41.583Z,14.57
2019-04-07T10:50:33.675Z,15.70
2019-04-07T10:53:17.080Z,14.63
2019-04-07T10:56:19.938Z,15.57
2019-04-07T10:59:23.240Z,14.50
2019-04-07T11:05:24.540Z,15.77
2019-04-07T11:08:18.465Z,14.50
2019-04-07T11:11:19.164Z,14.77
2019-04-07T11:17:08.088Z,14.87
2019-04-07T11:19:58.169Z,14.63
2019-04-07T11:22:41.395Z,15.33
2019-04-07T11:25:32.209Z,14.23
2019-04-07T11:28:22.582Z,14.13
2019-04-07T11:31:23.743Z,14.50
2019-04-07T11:34:23.737Z,13.87
2019-04-07T11:37:24.528Z,14.23
2019-04-07T11:40:11.709Z,14.40
2019-04-07T11:43:15.307Z,13.90
2019-04-07T11:46:03.059Z,14.80
2019-04-07T11:49:02.387Z,14.60
2019-04-07T11:51:47.863Z,13.90
2019-04-07T11:54:33.924Z,14.00
2019-04-07T11:57:29.055Z,14.30
2019-04-07T12:03:17.179Z,14.30
2019-04-07T12:09:02.216Z,14.13
2019-04-07T12:11:58.232Z,14.37
2019-04-07T12:14:59.145Z,14.87
2019-04-07T12:17:49.191Z,15.23
2019-04-07T12:20:53.446Z,14.70
2019-04-07T12:23:54.241Z,15.13
2019-04-07T12:26:53.828Z,14.20
2019-04-07T12:30:00.135Z,15.00
2019-04-07T12:33:08.455Z,15.60
2019-04-07T12:36:11.795Z,15.70
2019-04-07T12:42:07.164Z,13.63
2019-04-07T12:45:14.444Z,13.87
2019-04-07T12:47:59.382Z,14.10
2019-04-07T12:50:48.890Z,12.93
2019-04-07T12:53:50.105Z,14.20
2019-04-07T12:59:55.209Z,15.03
2019-04-07T13:02:53.234Z,13.87
2019-04-07T13:05:39.205Z,14.83
2019-04-07T13:08:41.765Z,13.03
2019-04-07T13:11:45.679Z,14.87
2019-04-07T13:14:43.913Z,14.07
2019-04-07T13:17:44.371Z,14.23
2019-04-07T13:23:36.966Z,14.17
2019-04-07T13:26:37.418Z,14.10
2019-04-07T13:29:40.058Z,13.33
2019-04-07T13:35:42.148Z,13.13
2019-04-07T13:38:35.472Z,13.40
2019-04-07T13:44:21.738Z,13.00
2019-04-07T13:47:20.850Z,13.17
2019-04-07T13:50:20.222Z,13.27
2019-04-07T13:56:17.631Z,16.63
2019-04-07T14:02:30.210Z,17.27
2019-04-07T14:05:07.562Z,18.00
2019-04-07T14:07:53.931Z,17.13
2019-04-07T14:10:42.894Z,17.27
2019-04-07T14:13:44.708Z,18.27
2019-04-07T14:19:55.153Z,17.23
2019-04-07T14:22:42.882Z,18.07
2019-04-07T14:25:46.393Z,18.20
2019-04-07T14:31:34.718Z,18.17
2019-04-07T14:34:24.380Z,18.53
2019-04-07T14:37:25.349Z,18.37
2019-04-07T14:40:30.975Z,17.80
2019-04-07T14:43:26.326Z,18.73
2019-04-07T14:49:30.933Z,18.93
2019-04-07T14:52:17.651Z,18.30
2019-04-07T14:58:02.260Z,18.60
2019-04-07T15:01:04.733Z,17.53
2019-04-07T15:03:42.836Z,17.77
2019-04-07T15:06:23.886Z,17.97
2019-04-07T15:09:11.090Z,18.43
2019-04-07T15:12:01.568Z,18.57
2019-04-07T15:14:42.693Z,18.27
2019-04-07T15:17:23.125Z,17.67
2019-04-07T15:22:48.493Z,16.80
2019-04-07T15:25:29.719Z,16.23
2019-04-07T15:28:09.265Z,15.47
2019-04-07T15:30:50.167Z,15.40
2019-04-07T15:33:38.778Z,16.30
2019-04-07T15:36:19.557Z,16.87
2019-04-07T15:38:59.926Z,17.17
2019-04-07T15:41:42.493Z,18.50
2019-04-07T15:44:22.777Z,18.47
2019-04-07T15:47:02.952Z,18.67
2019-04-07T15:49:42.591Z,19.03
2019-04-07T15:52:22.891Z,18.60
2019-04-07T15:55:03.452Z,18.17
2019-04-07T15:57:43.942Z,18.00
2019-04-07T16:00:23.767Z,18.37
2019-04-07T16:03:04.315Z,18.47
2019-04-07T16:05:46.090Z,18.93
2019-04-07T16:08:28.817Z,19.00
2019-04-07T16:11:08.171Z,18.33
2019-04-07T16:13:48.249Z,18.90
2019-04-07T16:16:29.452Z,17.97
2019-04-07T16:19:15.581Z,17.83
2019-04-07T16:21:52.257Z,18.40
2019-04-07T16:24:32.722Z,18.53
2019-04-07T16:27:12.088Z,19.90
2019-04-07T16:29:56.906Z,19.13
2019-04-07T16:32:37.578Z,19.00
2019-04-07T16:35:18.333Z,19.60
2019-04-07T16:38:00.050Z,19.70
2019-04-07T16:40:42.098Z,19.27
2019-04-07T16:43:22.605Z,20.63
2019-04-07T16:46:02.501Z,20.10
2019-04-07T16:48:43.114Z,19.97
2019-04-07T16:51:26.439Z,20.03
2019-04-07T16:54:08.045Z,21.30
2019-04-07T16:56:50.477Z,21.90
2019-04-07T17:02:14.450Z,20.90
2019-04-07T17:04:54.700Z,22.13
2019-04-07T17:07:34.874Z,21.60
2019-04-07T17:10:14.993Z,21.33
2019-04-07T17:15:57.798Z,21.63
2019-04-07T17:18:37.079Z,21.57
2019-04-07T17:21:18.357Z,21.57
2019-04-07T17:23:59.171Z,20.27
2019-04-07T17:26:39.342Z,20.80
2019-04-07T17:29:21.413Z,22.13
2019-04-07T17:32:02.399Z,21.23
2019-04-07T17:34:43.597Z,21.00
2019-04-07T17:37:28.046Z,21.43
2019-04-07T17:40:14.362Z,22.70
2019-04-07T17:42:56.723Z,21.00
2019-04-07T17:49:18.158Z,20.03
2019-04-07T17:52:16.028Z,18.07
2019-04-07T17:55:15.331Z,18.20
2019-04-07T18:01:15.815Z,16.73
2019-04-07T18:07:29.966Z,18.02
2019-04-07T18:13:21.722Z,17.73
2019-04-07T18:16:15.999Z,17.10
2019-04-07T18:22:10.648Z,17.87
2019-04-07T18:24:59.589Z,17.30
2019-04-07T18:27:58.837Z,18.65
2019-04-07T18:30:54.728Z,17.85
2019-04-07T18:33:51.630Z,18.10
2019-04-07T18:40:02.421Z,18.60
2019-04-07T18:43:05.134Z,18.15
2019-04-07T18:46:05.996Z,17.92
2019-04-07T18:49:06.076Z,18.82
2019-04-07T18:52:05.718Z,18.27
2019-04-07T18:54:47.593Z,17.87
2019-04-07T18:57:42.610Z,19.70
2019-04-07T19:03:53.788Z,19.23
2019-04-07T19:06:56.185Z,18.35
2019-04-07T19:09:43.986Z,18.67
2019-04-07T19:12:43.593Z,18.50
2019-04-07T19:18:47.340Z,18.23
2019-04-07T19:21:38.782Z,19.27
2019-04-07T19:24:38.325Z,18.70
2019-04-07T19:27:38.600Z,19.03
2019-04-07T19:30:38.885Z,18.10
2019-04-07T19:33:24.507Z,16.43
2019-04-07T22:33:46.583Z,22.07
2019-04-07T22:36:27.323Z,28.40
2019-04-07T22:39:07.776Z,27.32
2019-04-07T22:41:48.376Z,28.38
2019-04-07T22:44:28.115Z,28.05
2019-04-07T22:47:09.422Z,28.87
2019-04-07T22:49:49.435Z,29.00
2019-04-07T22:52:30.063Z,27.80
2019-04-07T22:55:09.804Z,28.12
2019-04-07T22:57:49.765Z,28.10
2019-04-07T23:00:29.021Z,27.50
2019-04-07T23:03:09.919Z,27.22
2019-04-07T23:05:50.153Z,26.45
2019-04-07T23:08:30.367Z,27.02
2019-04-07T23:11:10.411Z,26.50
2019-04-07T23:13:51.306Z,24.63
2019-04-07T23:16:31.662Z,25.65
2019-04-07T23:19:11.713Z,24.80
2019-04-07T23:21:51.713Z,24.50
2019-04-07T23:24:31.713Z,23.27
2019-04-07T23:27:12.434Z,23.45
2019-04-07T23:29:52.849Z,20.65
2019-04-07T23:32:33.014Z,19.60
2019-04-07T23:35:13.146Z,17.65
2019-04-07T23:37:53.250Z,19.40
2019-04-07T23:40:34.289Z,31.90
2019-04-07T23:43:15.216Z,24.72
2019-04-07T23:45:55.944Z,21.82
2019-04-07T23:48:35.427Z,19.15
2019-04-07T23:51:16.405Z,19.48
2019-04-07T23:53:56.409Z,21.17
2019-04-07T23:56:36.332Z,22.15
2019-04-07T23:59:16.799Z,23.52
